sensor_id;sensor_type;location;lat;lon;timestamp;P1;durP1;ratioP1;P2;durP2;ratioP2
75073;SDS011;63652;51.526;5.080;2022-10-17T00:01:03;13.40;;;6.15;;
75073;SDS011;63652;51.526;5.080;2022-10-17T00:03:29;11.00;;;6.07;;
75073;SDS011;63652;51.526;5.080;2022-10-17T00:05:54;8.27;;;5.32;;
75073;SDS011;63652;51.526;5.080;2022-10-17T00:08:20;10.02;;;6.25;;
75073;SDS011;63652;51.526;5.080;2022-10-17T00:10:53;9.48;;;5.80;;
75073;SDS011;63652;51.526;5.080;2022-10-17T00:13:27;13.15;;;6.90;;
75073;SDS011;63652;51.526;5.080;2022-10-17T00:15:52;10.25;;;6.65;;
75073;SDS011;63652;51.526;5.080;2022-10-17T00:18:18;8.77;;;5.00;;
75073;SDS011;63652;51.526;5.080;2022-10-17T00:20:43;10.55;;;6.10;;
75073;SDS011;63652;51.526;5.080;2022-10-17T00:23:09;8.35;;;5.68;;
75073;SDS011;63652;51.526;5.080;2022-10-17T00:25:34;10.18;;;5.53;;
75073;SDS011;63652;51.526;5.080;2022-10-17T00:28:01;8.52;;;6.22;;
75073;SDS011;63652;51.526;5.080;2022-10-17T00:30:26;11.32;;;6.32;;
75073;SDS011;63652;51.526;5.080;2022-10-17T00:32:51;10.98;;;6.22;;
75073;SDS011;63652;51.526;5.080;2022-10-17T00:35:17;8.45;;;5.68;;
75073;SDS011;63652;51.526;5.080;2022-10-17T00:37:42;11.68;;;6.75;;
75073;SDS011;63652;51.526;5.080;2022-10-17T00:40:08;12.13;;;6.75;;
75073;SDS011;63652;51.526;5.080;2022-10-17T00:42:34;13.38;;;7.93;;
75073;SDS011;63652;51.526;5.080;2022-10-17T00:45:02;11.50;;;6.55;;
75073;SDS011;63652;51.526;5.080;2022-10-17T00:47:47;9.82;;;6.25;;
75073;SDS011;63652;51.526;5.080;2022-10-17T00:50:14;12.13;;;7.10;;
75073;SDS011;63652;51.526;5.080;2022-10-17T00:52:40;11.65;;;7.25;;
75073;SDS011;63652;51.526;5.080;2022-10-17T00:55:11;11.05;;;7.22;;
75073;SDS011;63652;51.526;5.080;2022-10-17T00:57:50;12.13;;;6.90;;
75073;SDS011;63652;51.526;5.080;2022-10-17T01:00:16;10.48;;;6.63;;
75073;SDS011;63652;51.526;5.080;2022-10-17T01:02:42;12.20;;;6.93;;
75073;SDS011;63652;51.526;5.080;2022-10-17T01:05:08;11.15;;;6.93;;
75073;SDS011;63652;51.526;5.080;2022-10-17T01:07:33;11.98;;;7.18;;
75073;SDS011;63652;51.526;5.080;2022-10-17T01:09:59;14.65;;;7.63;;
75073;SDS011;63652;51.526;5.080;2022-10-17T01:12:40;12.63;;;7.95;;
75073;SDS011;63652;51.526;5.080;2022-10-17T01:18:07;13.48;;;7.85;;
75073;SDS011;63652;51.526;5.080;2022-10-17T01:21:52;10.90;;;6.53;;
75073;SDS011;63652;51.526;5.080;2022-10-17T01:24:02;14.32;;;7.05;;
75073;SDS011;63652;51.526;5.080;2022-10-17T01:32:00;13.70;;;7.22;;
75073;SDS011;63652;51.526;5.080;2022-10-17T01:34:32;13.95;;;7.97;;
75073;SDS011;63652;51.526;5.080;2022-10-17T01:37:05;14.68;;;7.72;;
75073;SDS011;63652;51.526;5.080;2022-10-17T01:42:16;15.13;;;8.70;;
75073;SDS011;63652;51.526;5.080;2022-10-17T01:44:54;15.05;;;9.05;;
75073;SDS011;63652;51.526;5.080;2022-10-17T01:47:24;15.52;;;8.75;;
75073;SDS011;63652;51.526;5.080;2022-10-17T01:49:51;10.88;;;7.28;;
75073;SDS011;63652;51.526;5.080;2022-10-17T01:52:26;11.43;;;7.25;;
75073;SDS011;63652;51.526;5.080;2022-10-17T01:57:57;10.50;;;6.80;;
75073;SDS011;63652;51.526;5.080;2022-10-17T02:00:41;20.50;;;8.05;;
75073;SDS011;63652;51.526;5.080;2022-10-17T02:03:08;16.25;;;7.13;;
75073;SDS011;63652;51.526;5.080;2022-10-17T02:05:37;10.60;;;6.35;;
75073;SDS011;63652;51.526;5.080;2022-10-17T02:08:04;11.90;;;7.25;;
75073;SDS011;63652;51.526;5.080;2022-10-17T02:10:31;12.43;;;5.90;;
75073;SDS011;63652;51.526;5.080;2022-10-17T02:13:10;12.93;;;8.05;;
75073;SDS011;63652;51.526;5.080;2022-10-17T02:18:58;12.82;;;6.55;;
75073;SDS011;63652;51.526;5.080;2022-10-17T02:21:06;12.18;;;6.88;;
75073;SDS011;63652;51.526;5.080;2022-10-17T02:34:30;12.07;;;6.57;;
75073;SDS011;63652;51.526;5.080;2022-10-17T02:36:59;10.98;;;5.93;;
75073;SDS011;63652;51.526;5.080;2022-10-17T02:39:26;13.95;;;8.02;;
75073;SDS011;63652;51.526;5.080;2022-10-17T02:41:52;10.95;;;6.68;;
75073;SDS011;63652;51.526;5.080;2022-10-17T02:44:20;13.63;;;7.22;;
75073;SDS011;63652;51.526;5.080;2022-10-17T02:46:47;12.07;;;6.47;;
75073;SDS011;63652;51.526;5.080;2022-10-17T02:49:24;10.57;;;6.47;;
75073;SDS011;63652;51.526;5.080;2022-10-17T02:52:00;11.85;;;6.40;;
75073;SDS011;63652;51.526;5.080;2022-10-17T02:54:32;12.02;;;6.03;;
75073;SDS011;63652;51.526;5.080;2022-10-17T02:57:05;14.52;;;7.43;;
75073;SDS011;63652;51.526;5.080;2022-10-17T02:59:33;11.10;;;6.28;;
75073;SDS011;63652;51.526;5.080;2022-10-17T03:02:01;10.80;;;6.57;;
75073;SDS011;63652;51.526;5.080;2022-10-17T03:04:28;9.57;;;6.28;;
75073;SDS011;63652;51.526;5.080;2022-10-17T03:06:53;8.50;;;5.55;;
75073;SDS011;63652;51.526;5.080;2022-10-17T03:09:18;9.65;;;6.15;;
75073;SDS011;63652;51.526;5.080;2022-10-17T03:11:44;10.63;;;6.82;;
75073;SDS011;63652;51.526;5.080;2022-10-17T03:14:09;12.30;;;7.10;;
75073;SDS011;63652;51.526;5.080;2022-10-17T03:16:34;12.88;;;6.97;;
75073;SDS011;63652;51.526;5.080;2022-10-17T03:19:00;10.90;;;6.22;;
75073;SDS011;63652;51.526;5.080;2022-10-17T03:21:25;10.77;;;6.20;;
75073;SDS011;63652;51.526;5.080;2022-10-17T03:23:51;10.52;;;6.22;;
75073;SDS011;63652;51.526;5.080;2022-10-17T03:26:16;9.63;;;7.03;;
75073;SDS011;63652;51.526;5.080;2022-10-17T03:28:41;16.75;;;7.90;;
75073;SDS011;63652;51.526;5.080;2022-10-17T03:31:11;14.52;;;8.43;;
75073;SDS011;63652;51.526;5.080;2022-10-17T03:33:39;14.60;;;7.70;;
75073;SDS011;63652;51.526;5.080;2022-10-17T03:36:07;14.73;;;7.97;;
75073;SDS011;63652;51.526;5.080;2022-10-17T03:38:33;13.93;;;7.95;;
75073;SDS011;63652;51.526;5.080;2022-10-17T03:40:59;13.90;;;7.22;;
75073;SDS011;63652;51.526;5.080;2022-10-17T03:43:25;13.70;;;8.13;;
75073;SDS011;63652;51.526;5.080;2022-10-17T03:45:50;16.85;;;8.57;;
75073;SDS011;63652;51.526;5.080;2022-10-17T03:48:15;13.68;;;6.90;;
75073;SDS011;63652;51.526;5.080;2022-10-17T03:50:41;14.80;;;8.35;;
75073;SDS011;63652;51.526;5.080;2022-10-17T03:53:06;11.98;;;6.35;;
75073;SDS011;63652;51.526;5.080;2022-10-17T03:55:32;14.30;;;7.30;;
75073;SDS011;63652;51.526;5.080;2022-10-17T03:57:57;13.57;;;6.45;;
75073;SDS011;63652;51.526;5.080;2022-10-17T04:00:22;11.43;;;6.88;;
75073;SDS011;63652;51.526;5.080;2022-10-17T04:02:48;9.52;;;6.28;;
75073;SDS011;63652;51.526;5.080;2022-10-17T04:05:13;13.23;;;7.60;;
75073;SDS011;63652;51.526;5.080;2022-10-17T04:07:38;11.95;;;6.50;;
75073;SDS011;63652;51.526;5.080;2022-10-17T04:10:04;12.25;;;6.97;;
75073;SDS011;63652;51.526;5.080;2022-10-17T04:12:30;13.63;;;6.85;;
75073;SDS011;63652;51.526;5.080;2022-10-17T04:14:55;11.20;;;7.05;;
75073;SDS011;63652;51.526;5.080;2022-10-17T04:17:21;13.10;;;7.28;;
75073;SDS011;63652;51.526;5.080;2022-10-17T04:19:47;12.77;;;6.72;;
75073;SDS011;63652;51.526;5.080;2022-10-17T04:22:13;12.07;;;6.93;;
75073;SDS011;63652;51.526;5.080;2022-10-17T04:24:38;11.43;;;8.00;;
75073;SDS011;63652;51.526;5.080;2022-10-17T04:27:04;13.57;;;7.68;;
75073;SDS011;63652;51.526;5.080;2022-10-17T04:29:29;16.50;;;8.75;;
75073;SDS011;63652;51.526;5.080;2022-10-17T04:31:54;22.25;;;10.60;;
75073;SDS011;63652;51.526;5.080;2022-10-17T04:34:20;19.35;;;10.40;;
75073;SDS011;63652;51.526;5.080;2022-10-17T04:36:45;14.13;;;7.82;;
75073;SDS011;63652;51.526;5.080;2022-10-17T04:39:11;16.48;;;8.05;;
75073;SDS011;63652;51.526;5.080;2022-10-17T04:41:36;12.43;;;7.18;;
75073;SDS011;63652;51.526;5.080;2022-10-17T04:44:02;14.93;;;7.47;;
75073;SDS011;63652;51.526;5.080;2022-10-17T04:46:27;14.15;;;6.93;;
75073;SDS011;63652;51.526;5.080;2022-10-17T04:48:53;11.82;;;6.55;;
75073;SDS011;63652;51.526;5.080;2022-10-17T04:51:19;11.38;;;7.00;;
75073;SDS011;63652;51.526;5.080;2022-10-17T04:53:44;11.55;;;6.40;;
75073;SDS011;63652;51.526;5.080;2022-10-17T04:56:14;22.10;;;7.75;;
75073;SDS011;63652;51.526;5.080;2022-10-17T04:58:41;11.65;;;6.05;;
75073;SDS011;63652;51.526;5.080;2022-10-17T05:01:09;12.50;;;6.15;;
75073;SDS011;63652;51.526;5.080;2022-10-17T05:03:36;11.45;;;6.80;;
75073;SDS011;63652;51.526;5.080;2022-10-17T05:06:02;14.13;;;6.93;;
75073;SDS011;63652;51.526;5.080;2022-10-17T05:08:35;12.52;;;7.13;;
75073;SDS011;63652;51.526;5.080;2022-10-17T05:11:00;11.05;;;6.38;;
75073;SDS011;63652;51.526;5.080;2022-10-17T05:13:26;11.07;;;6.93;;
75073;SDS011;63652;51.526;5.080;2022-10-17T05:15:51;12.30;;;6.95;;
75073;SDS011;63652;51.526;5.080;2022-10-17T05:18:17;10.60;;;6.22;;
75073;SDS011;63652;51.526;5.080;2022-10-17T05:20:42;8.07;;;5.72;;
75073;SDS011;63652;51.526;5.080;2022-10-17T05:23:07;10.07;;;6.38;;
75073;SDS011;63652;51.526;5.080;2022-10-17T05:25:33;11.63;;;6.57;;
75073;SDS011;63652;51.526;5.080;2022-10-17T05:27:58;10.70;;;6.55;;
75073;SDS011;63652;51.526;5.080;2022-10-17T05:30:23;11.35;;;6.63;;
75073;SDS011;63652;51.526;5.080;2022-10-17T05:32:52;9.20;;;5.68;;
75073;SDS011;63652;51.526;5.080;2022-10-17T05:35:18;9.25;;;6.20;;
75073;SDS011;63652;51.526;5.080;2022-10-17T05:37:44;10.00;;;5.68;;
75073;SDS011;63652;51.526;5.080;2022-10-17T05:40:09;10.75;;;6.38;;
75073;SDS011;63652;51.526;5.080;2022-10-17T05:42:35;9.65;;;5.97;;
75073;SDS011;63652;51.526;5.080;2022-10-17T05:45:01;11.90;;;5.50;;
75073;SDS011;63652;51.526;5.080;2022-10-17T05:47:26;12.43;;;6.47;;
75073;SDS011;63652;51.526;5.080;2022-10-17T05:49:51;9.20;;;5.75;;
75073;SDS011;63652;51.526;5.080;2022-10-17T05:52:17;9.25;;;5.50;;
75073;SDS011;63652;51.526;5.080;2022-10-17T05:54:42;10.63;;;5.70;;
75073;SDS011;63652;51.526;5.080;2022-10-17T05:57:07;10.95;;;5.93;;
75073;SDS011;63652;51.526;5.080;2022-10-17T05:59:33;10.27;;;5.50;;
75073;SDS011;63652;51.526;5.080;2022-10-17T06:01:58;13.27;;;6.07;;
75073;SDS011;63652;51.526;5.080;2022-10-17T06:04:24;9.88;;;5.00;;
75073;SDS011;63652;51.526;5.080;2022-10-17T06:06:52;8.93;;;5.25;;
75073;SDS011;63652;51.526;5.080;2022-10-17T06:09:20;10.70;;;5.45;;
75073;SDS011;63652;51.526;5.080;2022-10-17T06:11:48;12.15;;;6.22;;
75073;SDS011;63652;51.526;5.080;2022-10-17T06:14:14;9.82;;;5.18;;
75073;SDS011;63652;51.526;5.080;2022-10-17T06:16:39;10.25;;;5.70;;
75073;SDS011;63652;51.526;5.080;2022-10-17T06:19:04;10.48;;;6.15;;
75073;SDS011;63652;51.526;5.080;2022-10-17T06:21:30;9.20;;;5.18;;
75073;SDS011;63652;51.526;5.080;2022-10-17T06:24:00;8.95;;;5.03;;
75073;SDS011;63652;51.526;5.080;2022-10-17T06:26:25;9.48;;;5.07;;
75073;SDS011;63652;51.526;5.080;2022-10-17T06:28:52;12.27;;;5.22;;
75073;SDS011;63652;51.526;5.080;2022-10-17T06:31:19;9.00;;;5.20;;
75073;SDS011;63652;51.526;5.080;2022-10-17T06:33:44;9.48;;;5.50;;
75073;SDS011;63652;51.526;5.080;2022-10-17T06:36:11;9.45;;;5.35;;
75073;SDS011;63652;51.526;5.080;2022-10-17T06:38:37;10.73;;;5.70;;
75073;SDS011;63652;51.526;5.080;2022-10-17T06:41:03;12.32;;;5.00;;
75073;SDS011;63652;51.526;5.080;2022-10-17T06:43:32;7.95;;;4.95;;
75073;SDS011;63652;51.526;5.080;2022-10-17T06:45:58;12.15;;;5.00;;
75073;SDS011;63652;51.526;5.080;2022-10-17T06:48:23;10.75;;;6.35;;
75073;SDS011;63652;51.526;5.080;2022-10-17T06:50:49;9.25;;;5.20;;
75073;SDS011;63652;51.526;5.080;2022-10-17T06:53:14;10.13;;;6.43;;
75073;SDS011;63652;51.526;5.080;2022-10-17T06:55:39;11.23;;;5.15;;
75073;SDS011;63652;51.526;5.080;2022-10-17T06:58:05;15.20;;;6.20;;
75073;SDS011;63652;51.526;5.080;2022-10-17T07:00:30;9.73;;;4.65;;
75073;SDS011;63652;51.526;5.080;2022-10-17T07:02:55;8.15;;;4.63;;
75073;SDS011;63652;51.526;5.080;2022-10-17T07:05:21;9.27;;;4.70;;
75073;SDS011;63652;51.526;5.080;2022-10-17T07:07:46;8.27;;;4.75;;
75073;SDS011;63652;51.526;5.080;2022-10-17T07:10:11;8.93;;;5.20;;
75073;SDS011;63652;51.526;5.080;2022-10-17T07:12:37;9.35;;;4.43;;
75073;SDS011;63652;51.526;5.080;2022-10-17T07:15:03;7.78;;;3.97;;
75073;SDS011;63652;51.526;5.080;2022-10-17T07:17:29;9.00;;;4.93;;
75073;SDS011;63652;51.526;5.080;2022-10-17T07:19:55;9.93;;;4.65;;
75073;SDS011;63652;51.526;5.080;2022-10-17T07:22:20;10.05;;;5.28;;
75073;SDS011;63652;51.526;5.080;2022-10-17T07:24:45;10.23;;;4.70;;
75073;SDS011;63652;51.526;5.080;2022-10-17T07:27:11;8.68;;;4.45;;
75073;SDS011;63652;51.526;5.080;2022-10-17T07:29:37;8.18;;;4.85;;
75073;SDS011;63652;51.526;5.080;2022-10-17T07:32:03;13.82;;;5.72;;
75073;SDS011;63652;51.526;5.080;2022-10-17T07:34:32;9.57;;;5.45;;
75073;SDS011;63652;51.526;5.080;2022-10-17T07:37:00;14.10;;;6.80;;
75073;SDS011;63652;51.526;5.080;2022-10-17T07:39:26;12.02;;;6.82;;
75073;SDS011;63652;51.526;5.080;2022-10-17T07:41:52;16.77;;;6.55;;
75073;SDS011;63652;51.526;5.080;2022-10-17T07:44:17;13.50;;;7.60;;
75073;SDS011;63652;51.526;5.080;2022-10-17T07:46:43;14.35;;;7.15;;
75073;SDS011;63652;51.526;5.080;2022-10-17T07:49:08;12.20;;;6.75;;
75073;SDS011;63652;51.526;5.080;2022-10-17T07:51:34;15.48;;;7.15;;
75073;SDS011;63652;51.526;5.080;2022-10-17T07:53:59;11.32;;;7.05;;
75073;SDS011;63652;51.526;5.080;2022-10-17T07:56:25;14.15;;;6.35;;
75073;SDS011;63652;51.526;5.080;2022-10-17T07:58:51;14.82;;;6.95;;
75073;SDS011;63652;51.526;5.080;2022-10-17T08:01:17;12.75;;;6.60;;
75073;SDS011;63652;51.526;5.080;2022-10-17T08:03:43;11.13;;;6.72;;
75073;SDS011;63652;51.526;5.080;2022-10-17T08:06:09;12.60;;;6.75;;
75073;SDS011;63652;51.526;5.080;2022-10-17T08:08:34;13.10;;;6.47;;
75073;SDS011;63652;51.526;5.080;2022-10-17T08:11:00;15.27;;;7.15;;
75073;SDS011;63652;51.526;5.080;2022-10-17T08:13:27;15.32;;;6.93;;
75073;SDS011;63652;51.526;5.080;2022-10-17T08:15:53;12.90;;;7.00;;
75073;SDS011;63652;51.526;5.080;2022-10-17T08:18:18;12.02;;;7.57;;
75073;SDS011;63652;51.526;5.080;2022-10-17T08:20:43;16.65;;;7.15;;
75073;SDS011;63652;51.526;5.080;2022-10-17T08:23:09;12.45;;;6.45;;
75073;SDS011;63652;51.526;5.080;2022-10-17T08:25:36;13.73;;;6.70;;
75073;SDS011;63652;51.526;5.080;2022-10-17T08:28:03;15.82;;;8.30;;
75073;SDS011;63652;51.526;5.080;2022-10-17T08:30:29;12.27;;;7.10;;
75073;SDS011;63652;51.526;5.080;2022-10-17T08:32:54;11.38;;;7.13;;
75073;SDS011;63652;51.526;5.080;2022-10-17T08:35:20;13.88;;;6.68;;
75073;SDS011;63652;51.526;5.080;2022-10-17T08:37:46;18.38;;;8.30;;
75073;SDS011;63652;51.526;5.080;2022-10-17T08:40:21;25.67;;;9.85;;
75073;SDS011;63652;51.526;5.080;2022-10-17T08:46:04;14.25;;;8.68;;
75073;SDS011;63652;51.526;5.080;2022-10-17T08:48:30;16.48;;;8.18;;
75073;SDS011;63652;51.526;5.080;2022-10-17T08:58:49;15.68;;;9.27;;
75073;SDS011;63652;51.526;5.080;2022-10-17T09:09:44;17.92;;;9.15;;
75073;SDS011;63652;51.526;5.080;2022-10-17T09:12:21;17.65;;;9.52;;
75073;SDS011;63652;51.526;5.080;2022-10-17T09:17:53;12.35;;;7.28;;
75073;SDS011;63652;51.526;5.080;2022-10-17T09:20:21;12.68;;;7.95;;
75073;SDS011;63652;51.526;5.080;2022-10-17T09:23:01;14.70;;;6.90;;
75073;SDS011;63652;51.526;5.080;2022-10-17T09:25:31;14.52;;;7.22;;
75073;SDS011;63652;51.526;5.080;2022-10-17T09:30:43;12.32;;;6.47;;
75073;SDS011;63652;51.526;5.080;2022-10-17T09:33:12;13.85;;;7.35;;
75073;SDS011;63652;51.526;5.080;2022-10-17T09:36:01;12.60;;;7.15;;
75073;SDS011;63652;51.526;5.080;2022-10-17T09:38:32;13.95;;;7.30;;
75073;SDS011;63652;51.526;5.080;2022-10-17T09:41:01;14.80;;;8.27;;
75073;SDS011;63652;51.526;5.080;2022-10-17T09:43:26;21.42;;;7.80;;
75073;SDS011;63652;51.526;5.080;2022-10-17T09:46:06;16.08;;;8.48;;
75073;SDS011;63652;51.526;5.080;2022-10-17T09:48:49;13.57;;;8.13;;
75073;SDS011;63652;51.526;5.080;2022-10-17T09:51:17;14.57;;;8.32;;
75073;SDS011;63652;51.526;5.080;2022-10-17T09:53:44;16.85;;;9.05;;
75073;SDS011;63652;51.526;5.080;2022-10-17T09:56:13;17.00;;;8.60;;
75073;SDS011;63652;51.526;5.080;2022-10-17T09:58:47;14.35;;;7.97;;
75073;SDS011;63652;51.526;5.080;2022-10-17T10:01:15;21.05;;;9.10;;
75073;SDS011;63652;51.526;5.080;2022-10-17T10:03:45;17.98;;;8.70;;
75073;SDS011;63652;51.526;5.080;2022-10-17T10:06:12;14.02;;;8.68;;
75073;SDS011;63652;51.526;5.080;2022-10-17T10:11:18;13.85;;;7.47;;
75073;SDS011;63652;51.526;5.080;2022-10-17T10:13:47;16.70;;;8.73;;
75073;SDS011;63652;51.526;5.080;2022-10-17T10:16:15;20.73;;;9.18;;
75073;SDS011;63652;51.526;5.080;2022-10-17T10:18:42;17.52;;;8.88;;
75073;SDS011;63652;51.526;5.080;2022-10-17T10:21:12;17.27;;;8.85;;
75073;SDS011;63652;51.526;5.080;2022-10-17T10:23:43;17.98;;;8.95;;
75073;SDS011;63652;51.526;5.080;2022-10-17T10:29:05;17.55;;;7.97;;
75073;SDS011;63652;51.526;5.080;2022-10-17T10:31:42;14.55;;;7.88;;
75073;SDS011;63652;51.526;5.080;2022-10-17T10:34:18;12.43;;;6.78;;
75073;SDS011;63652;51.526;5.080;2022-10-17T10:36:47;10.93;;;5.90;;
75073;SDS011;63652;51.526;5.080;2022-10-17T10:39:22;12.52;;;6.78;;
75073;SDS011;63652;51.526;5.080;2022-10-17T10:44:17;11.30;;;6.63;;
75073;SDS011;63652;51.526;5.080;2022-10-17T10:46:45;13.52;;;6.53;;
75073;SDS011;63652;51.526;5.080;2022-10-17T10:49:27;12.07;;;6.38;;
75073;SDS011;63652;51.526;5.080;2022-10-17T10:51:56;10.27;;;5.55;;
75073;SDS011;63652;51.526;5.080;2022-10-17T10:54:23;11.73;;;6.05;;
75073;SDS011;63652;51.526;5.080;2022-10-17T10:56:53;13.18;;;6.25;;
75073;SDS011;63652;51.526;5.080;2022-10-17T10:59:20;11.73;;;5.75;;
75073;SDS011;63652;51.526;5.080;2022-10-17T11:04:22;9.57;;;5.47;;
75073;SDS011;63652;51.526;5.080;2022-10-17T11:06:52;8.32;;;5.03;;
75073;SDS011;63652;51.526;5.080;2022-10-17T11:12:10;11.45;;;5.25;;
75073;SDS011;63652;51.526;5.080;2022-10-17T11:14:39;12.23;;;5.95;;
75073;SDS011;63652;51.526;5.080;2022-10-17T11:17:09;11.02;;;5.70;;
75073;SDS011;63652;51.526;5.080;2022-10-17T11:19:42;9.75;;;5.75;;
75073;SDS011;63652;51.526;5.080;2022-10-17T11:24:57;9.82;;;5.90;;
75073;SDS011;63652;51.526;5.080;2022-10-17T11:27:26;14.00;;;7.07;;
75073;SDS011;63652;51.526;5.080;2022-10-17T11:29:52;9.75;;;6.35;;
75073;SDS011;63652;51.526;5.080;2022-10-17T11:35:07;17.33;;;7.32;;
75073;SDS011;63652;51.526;5.080;2022-10-17T11:37:39;13.55;;;8.30;;
75073;SDS011;63652;51.526;5.080;2022-10-17T11:40:14;12.27;;;7.60;;
75073;SDS011;63652;51.526;5.080;2022-10-17T11:42:54;14.00;;;8.35;;
75073;SDS011;63652;51.526;5.080;2022-10-17T11:45:26;16.23;;;8.57;;
75073;SDS011;63652;51.526;5.080;2022-10-17T11:47:57;17.02;;;9.50;;
75073;SDS011;63652;51.526;5.080;2022-10-17T11:50:33;16.33;;;9.85;;
75073;SDS011;63652;51.526;5.080;2022-10-17T11:53:05;19.85;;;9.73;;
75073;SDS011;63652;51.526;5.080;2022-10-17T11:55:33;20.83;;;10.93;;
75073;SDS011;63652;51.526;5.080;2022-10-17T12:03:43;15.48;;;9.68;;
75073;SDS011;63652;51.526;5.080;2022-10-17T12:14:33;14.55;;;9.77;;
75073;SDS011;63652;51.526;5.080;2022-10-17T12:17:04;14.38;;;9.60;;
75073;SDS011;63652;51.526;5.080;2022-10-17T12:19:34;18.38;;;11.30;;
75073;SDS011;63652;51.526;5.080;2022-10-17T12:22:04;15.00;;;9.75;;
75073;SDS011;63652;51.526;5.080;2022-10-17T12:24:34;16.88;;;9.23;;
75073;SDS011;63652;51.526;5.080;2022-10-17T12:29:45;16.13;;;9.60;;
75073;SDS011;63652;51.526;5.080;2022-10-17T12:32:12;17.35;;;9.13;;
75073;SDS011;63652;51.526;5.080;2022-10-17T12:34:38;17.15;;;9.82;;
75073;SDS011;63652;51.526;5.080;2022-10-17T12:37:03;16.23;;;10.30;;
75073;SDS011;63652;51.526;5.080;2022-10-17T12:41:54;19.20;;;10.83;;
75073;SDS011;63652;51.526;5.080;2022-10-17T12:54:38;18.90;;;11.27;;
75073;SDS011;63652;51.526;5.080;2022-10-17T12:57:19;17.27;;;10.63;;
75073;SDS011;63652;51.526;5.080;2022-10-17T12:59:48;16.85;;;10.48;;
75073;SDS011;63652;51.526;5.080;2022-10-17T13:02:18;19.27;;;10.63;;
75073;SDS011;63652;51.526;5.080;2022-10-17T13:04:45;16.80;;;10.77;;
75073;SDS011;63652;51.526;5.080;2022-10-17T13:07:15;21.75;;;11.00;;
75073;SDS011;63652;51.526;5.080;2022-10-17T13:09:43;15.20;;;10.18;;
75073;SDS011;63652;51.526;5.080;2022-10-17T13:12:11;16.17;;;10.18;;
75073;SDS011;63652;51.526;5.080;2022-10-17T13:14:39;18.38;;;11.05;;
75073;SDS011;63652;51.526;5.080;2022-10-17T13:17:06;19.48;;;10.90;;
75073;SDS011;63652;51.526;5.080;2022-10-17T13:19:45;21.10;;;10.85;;
75073;SDS011;63652;51.526;5.080;2022-10-17T13:22:21;16.20;;;10.75;;
75073;SDS011;63652;51.526;5.080;2022-10-17T13:24:49;20.38;;;11.00;;
75073;SDS011;63652;51.526;5.080;2022-10-17T13:27:29;15.48;;;9.15;;
75073;SDS011;63652;51.526;5.080;2022-10-17T13:29:56;15.15;;;9.93;;
75073;SDS011;63652;51.526;5.080;2022-10-17T13:32:23;16.15;;;9.48;;
75073;SDS011;63652;51.526;5.080;2022-10-17T13:37:32;14.23;;;9.48;;
75073;SDS011;63652;51.526;5.080;2022-10-17T13:39:58;14.40;;;9.55;;
75073;SDS011;63652;51.526;5.080;2022-10-17T13:42:25;14.18;;;9.00;;
75073;SDS011;63652;51.526;5.080;2022-10-17T13:44:52;14.68;;;9.35;;
75073;SDS011;63652;51.526;5.080;2022-10-17T13:47:21;15.93;;;9.55;;
75073;SDS011;63652;51.526;5.080;2022-10-17T13:49:48;14.07;;;8.75;;
75073;SDS011;63652;51.526;5.080;2022-10-17T13:52:15;16.02;;;8.27;;
75073;SDS011;63652;51.526;5.080;2022-10-17T13:54:43;13.93;;;7.95;;
75073;SDS011;63652;51.526;5.080;2022-10-17T13:57:24;14.82;;;7.85;;
75073;SDS011;63652;51.526;5.080;2022-10-17T13:59:50;9.70;;;6.28;;
75073;SDS011;63652;51.526;5.080;2022-10-17T14:02:19;14.80;;;7.70;;
75073;SDS011;63652;51.526;5.080;2022-10-17T14:04:59;15.48;;;6.90;;
75073;SDS011;63652;51.526;5.080;2022-10-17T14:07:34;10.25;;;6.50;;
75073;SDS011;63652;51.526;5.080;2022-10-17T14:10:00;10.77;;;6.53;;
75073;SDS011;63652;51.526;5.080;2022-10-17T14:12:25;11.35;;;7.00;;
75073;SDS011;63652;51.526;5.080;2022-10-17T14:14:51;10.88;;;7.25;;
75073;SDS011;63652;51.526;5.080;2022-10-17T14:17:24;13.50;;;8.02;;
75073;SDS011;63652;51.526;5.080;2022-10-17T14:19:55;13.13;;;7.20;;
75073;SDS011;63652;51.526;5.080;2022-10-17T14:22:26;9.63;;;6.72;;
75073;SDS011;63652;51.526;5.080;2022-10-17T14:24:52;13.65;;;7.68;;
75073;SDS011;63652;51.526;5.080;2022-10-17T14:27:34;12.02;;;7.00;;
75073;SDS011;63652;51.526;5.080;2022-10-17T14:30:27;11.88;;;7.43;;
75073;SDS011;63652;51.526;5.080;2022-10-17T14:32:54;11.35;;;7.03;;
75073;SDS011;63652;51.526;5.080;2022-10-17T14:35:21;11.57;;;6.63;;
75073;SDS011;63652;51.526;5.080;2022-10-17T14:37:47;12.23;;;7.20;;
75073;SDS011;63652;51.526;5.080;2022-10-17T14:40:16;13.48;;;7.38;;
75073;SDS011;63652;51.526;5.080;2022-10-17T14:42:42;12.55;;;7.32;;
75073;SDS011;63652;51.526;5.080;2022-10-17T14:45:13;14.23;;;7.75;;
75073;SDS011;63652;51.526;5.080;2022-10-17T14:47:39;15.77;;;9.80;;
75073;SDS011;63652;51.526;5.080;2022-10-17T14:52:36;22.00;;;10.40;;
75073;SDS011;63652;51.526;5.080;2022-10-17T14:55:19;20.70;;;10.52;;
75073;SDS011;63652;51.526;5.080;2022-10-17T14:57:47;17.20;;;11.20;;
75073;SDS011;63652;51.526;5.080;2022-10-17T15:00:16;16.83;;;10.63;;
75073;SDS011;63652;51.526;5.080;2022-10-17T15:02:43;16.83;;;11.18;;
75073;SDS011;63652;51.526;5.080;2022-10-17T15:05:09;16.75;;;11.50;;
75073;SDS011;63652;51.526;5.080;2022-10-17T15:07:34;18.95;;;11.20;;
75073;SDS011;63652;51.526;5.080;2022-10-17T15:10:00;17.33;;;10.90;;
75073;SDS011;63652;51.526;5.080;2022-10-17T15:12:25;16.90;;;11.18;;
75073;SDS011;63652;51.526;5.080;2022-10-17T15:14:51;19.13;;;10.38;;
75073;SDS011;63652;51.526;5.080;2022-10-17T15:17:18;15.75;;;10.10;;
75073;SDS011;63652;51.526;5.080;2022-10-17T15:19:45;16.25;;;10.65;;
75073;SDS011;63652;51.526;5.080;2022-10-17T15:22:11;18.95;;;8.95;;
75073;SDS011;63652;51.526;5.080;2022-10-17T15:24:37;15.18;;;8.38;;
75073;SDS011;63652;51.526;5.080;2022-10-17T15:27:05;16.75;;;9.63;;
75073;SDS011;63652;51.526;5.080;2022-10-17T15:29:34;18.40;;;9.00;;
75073;SDS011;63652;51.526;5.080;2022-10-17T15:31:59;16.15;;;8.50;;
75073;SDS011;63652;51.526;5.080;2022-10-17T15:34:24;11.80;;;7.63;;
75073;SDS011;63652;51.526;5.080;2022-10-17T15:36:50;16.45;;;8.20;;
75073;SDS011;63652;51.526;5.080;2022-10-17T15:39:16;16.42;;;8.43;;
75073;SDS011;63652;51.526;5.080;2022-10-17T15:41:42;16.25;;;9.45;;
75073;SDS011;63652;51.526;5.080;2022-10-17T15:44:08;15.82;;;8.75;;
75073;SDS011;63652;51.526;5.080;2022-10-17T15:46:33;15.80;;;9.40;;
75073;SDS011;63652;51.526;5.080;2022-10-17T15:49:03;14.30;;;9.57;;
75073;SDS011;63652;51.526;5.080;2022-10-17T15:51:34;14.32;;;8.20;;
75073;SDS011;63652;51.526;5.080;2022-10-17T15:53:59;16.88;;;9.10;;
75073;SDS011;63652;51.526;5.080;2022-10-17T15:56:29;18.80;;;9.88;;
75073;SDS011;63652;51.526;5.080;2022-10-17T15:58:56;15.25;;;9.05;;
75073;SDS011;63652;51.526;5.080;2022-10-17T16:01:23;16.63;;;9.63;;
75073;SDS011;63652;51.526;5.080;2022-10-17T16:03:51;18.35;;;9.30;;
75073;SDS011;63652;51.526;5.080;2022-10-17T16:06:17;14.18;;;8.63;;
75073;SDS011;63652;51.526;5.080;2022-10-17T16:08:44;17.27;;;9.73;;
75073;SDS011;63652;51.526;5.080;2022-10-17T16:11:23;14.65;;;8.73;;
75073;SDS011;63652;51.526;5.080;2022-10-17T16:14:00;17.40;;;9.18;;
75073;SDS011;63652;51.526;5.080;2022-10-17T16:16:27;16.20;;;8.70;;
75073;SDS011;63652;51.526;5.080;2022-10-17T16:18:53;14.02;;;8.48;;
75073;SDS011;63652;51.526;5.080;2022-10-17T16:21:18;12.00;;;7.88;;
75073;SDS011;63652;51.526;5.080;2022-10-17T16:23:46;16.30;;;8.40;;
75073;SDS011;63652;51.526;5.080;2022-10-17T16:26:11;15.95;;;8.10;;
75073;SDS011;63652;51.526;5.080;2022-10-17T16:28:40;17.50;;;9.07;;